< Typhoon 196413 1964 Season Typhoon 196415 >
Typhoon 196414 (KATHY)
General InformationTrack Information on Google Maps || NewsDisaster Info.ResourceGoogle EarthGE AnimationAtom FeedGeoJSON
Detalied Best Track (Time Zone = UTC)
Year Month Day Hour Lat. Long. Pressure (hPa) Wind (kt) Class Image Chart
1964 8 10 18 24.5 161.0 1008 0 2 -- Chart
1964 8 11 00 25.3 159.1 1008 0 2 -- Chart
1964 8 11 06 26.2 157.2 1004 0 2 -- Chart
1964 8 11 12 26.4 155.7 1006 0 2 -- Chart
1964 8 11 18 26.6 154.4 1004 0 2 -- Chart
1964 8 12 00 27.0 152.5 998 0 2 -- Chart
1964 8 12 06 27.4 151.3 998 0 9 -- Chart
1964 8 12 12 27.9 150.2 998 0 9 -- Chart
1964 8 12 18 28.7 149.2 990 0 9 -- Chart
1964 8 13 00 29.2 147.8 980 0 9 -- Chart
1964 8 13 06 29.5 146.4 970 0 9 -- Chart
1964 8 13 12 30.1 144.7 970 0 9 -- Chart
1964 8 13 18 30.4 143.1 975 0 9 -- Chart
1964 8 14 00 30.1 141.4 980 0 9 -- Chart
1964 8 14 06 29.8 140.5 980 0 9 -- Chart
1964 8 14 12 29.5 139.6 980 0 9 -- Chart
1964 8 14 18 29.5 138.5 980 0 9 -- Chart
1964 8 15 00 29.4 137.4 985 0 9 -- Chart
1964 8 15 06 29.2 136.3 985 0 9 -- Chart
1964 8 15 12 29.1 135.2 985 0 9 -- Chart
1964 8 15 18 29.0 133.9 985 0 9 -- Chart
1964 8 16 00 28.7 132.5 990 0 9 -- Chart
1964 8 16 06 28.0 131.0 986 0 9 -- Chart
1964 8 16 12 27.4 129.4 982 0 9 -- Chart
1964 8 16 18 26.9 128.1 989 0 9 -- Chart
1964 8 17 00 26.4 127.4 979 0 9 -- Chart
1964 8 17 06 26.0 126.8 970 0 9 -- Chart
1964 8 17 12 25.7 126.6 965 0 9 -- Chart
1964 8 17 18 25.5 126.4 958 0 9 -- Chart
1964 8 18 00 24.8 126.4 952 0 9 -- Chart
1964 8 18 06 24.5 127.2 948 0 9 -- Chart
1964 8 18 12 24.2 128.5 955 0 9 -- Chart
1964 8 18 18 24.3 129.7 962 0 9 -- Chart
1964 8 19 00 24.7 131.0 964 0 9 -- Chart
1964 8 19 06 25.6 131.7 960 0 9 -- Chart
1964 8 19 12 26.3 131.8 960 0 9 -- Chart
1964 8 19 18 26.8 131.3 960 0 9 -- Chart
1964 8 20 00 27.3 131.0 960 0 9 -- Chart
1964 8 20 06 27.6 130.4 955 0 9 -- Chart
1964 8 20 12 27.6 130.2 965 0 9 -- Chart
1964 8 20 18 27.2 130.2 955 0 9 -- Chart
1964 8 21 00 27.3 130.2 950 0 9 -- Chart
1964 8 21 06 27.4 130.4 960 0 9 -- Chart
1964 8 21 12 27.7 130.7 965 0 9 -- Chart
1964 8 21 18 28.2 130.7 965 0 9 -- Chart
1964 8 22 00 28.7 130.4 965 0 9 -- Chart
1964 8 22 06 29.2 130.2 965 0 9 -- Chart
1964 8 22 12 29.7 130.3 965 0 9 -- Chart
1964 8 22 18 30.3 130.2 965 0 9 -- Chart
1964 8 23 00 30.8 130.2 965 0 9 -- Chart
1964 8 23 06 31.6 130.2 965 0 9 -- Chart
1964 8 23 12 32.2 130.4 972 0 9 -- Chart
1964 8 23 18 32.9 130.8 978 0 9 -- Chart
1964 8 24 00 33.5 132.1 982 0 9 -- Chart
1964 8 24 06 34.3 133.3 985 0 9 -- Chart
1964 8 24 12 35.5 134.5 987 0 9 -- Chart
1964 8 24 18 36.7 136.0 988 0 9 -- Chart
1964 8 25 00 38.0 138.0 991 0 2 -- Chart
1964 8 25 06 39.2 140.7 992 0 6 -- Chart
1964 8 25 12 40.0 143.0 992 0 6 -- Chart
1964 8 25 18 40.5 144.5 995 0 6 -- Chart
1964 8 26 00 40.7 145.9 998 0 6 -- Chart
1964 8 26 06 40.5 147.5 1000 0 6 -- Chart
1964 8 26 12 40.5 148.9 1002 0 6 -- Chart
1964 8 26 18 40.5 150.5 1002 0 6 -- Chart
1964 8 27 00 40.6 152.2 1002 0 6 -- Chart
1964 8 27 06 41.0 154.0 1002 0 6 -- Chart
1964 8 27 12 41.5 155.5 1004 0 6 -- Chart
1964 8 27 18 42.0 157.0 1004 0 6 -- Chart
1964 8 28 00 41.7 160.0 1004 0 6 -- Chart
1964 8 28 06 42.0 163.0 1004 0 6 -- Chart
1964 8 28 12 43.0 168.0 1002 0 6 -- Chart
1964 8 28 18 43.7 173.0 1000 0 6 -- Chart
1964 8 29 00 45.0 175.0 994 0 6 -- Chart
1964 8 29 06 47.0 177.0 988 0 6 -- Chart
1964 8 29 12 47.0 179.3 982 0 6 -- Chart
1964 8 29 18 51.3 183.7 980 0 6 -- Chart
Japan Meteorological Agency Best Track Data | Correction Date : 1989-06-01
< Typhoon 196413 1964 Season Typhoon 196415 >

Help